createdAt,value
2022-08-17T00:04:32.051Z,0.00
2022-08-17T00:09:33.206Z,0.00
2022-08-17T00:14:33.559Z,0.00
2022-08-17T00:19:33.728Z,0.00
2022-08-17T00:24:31.934Z,0.00
2022-08-17T00:29:36.226Z,0.00
2022-08-17T00:34:36.420Z,0.00
2022-08-17T00:39:36.646Z,0.00
2022-08-17T00:44:34.906Z,0.00
2022-08-17T00:49:37.207Z,0.00
2022-08-17T00:54:41.876Z,0.00
2022-08-17T00:59:37.467Z,0.00
2022-08-17T01:04:37.728Z,0.00
2022-08-17T01:09:36.890Z,0.00
2022-08-17T01:14:37.146Z,0.00
2022-08-17T01:19:38.412Z,0.00
2022-08-17T01:24:40.573Z,0.00
2022-08-17T01:29:39.813Z,0.00
2022-08-17T01:34:43.925Z,0.00
2022-08-17T01:39:41.142Z,0.00
2022-08-17T01:44:43.364Z,0.00
2022-08-17T01:49:41.598Z,0.00
2022-08-17T01:54:42.787Z,0.00
2022-08-17T01:59:43.963Z,0.00
2022-08-17T02:04:47.131Z,0.00
2022-08-17T02:09:45.446Z,0.00
2022-08-17T02:14:47.467Z,0.00
2022-08-17T02:19:48.662Z,0.00
2022-08-17T02:25:01.044Z,0.00
2022-08-17T02:29:48.787Z,0.00
2022-08-17T02:34:50.935Z,0.00
2022-08-17T02:39:50.338Z,0.00
2022-08-17T02:44:51.593Z,0.00
2022-08-17T02:49:55.639Z,0.00
2022-08-17T02:54:54.331Z,0.00
2022-08-17T02:59:53.637Z,0.00
2022-08-17T03:04:56.946Z,0.00
2022-08-17T03:09:56.340Z,0.00
2022-08-17T03:14:57.550Z,0.00
2022-08-17T03:19:58.873Z,0.00
2022-08-17T03:25:02.213Z,0.00
2022-08-17T03:30:01.327Z,0.00
2022-08-17T03:35:02.678Z,0.00
2022-08-17T03:40:05.210Z,4.00
2022-08-17T03:45:05.601Z,4.00
2022-08-17T03:50:04.862Z,4.00
2022-08-17T03:55:06.149Z,12.00
2022-08-17T04:00:07.463Z,20.00
2022-08-17T04:05:09.831Z,44.00
2022-08-17T04:10:10.088Z,84.00
2022-08-17T04:15:08.413Z,144.00
2022-08-17T04:20:09.655Z,220.00
2022-08-17T04:25:11.877Z,332.00
2022-08-17T04:30:12.148Z,464.00
2022-08-17T04:35:12.412Z,752.00
2022-08-17T04:40:12.670Z,1012.00
2022-08-17T04:45:11.876Z,1312.00
2022-08-17T04:50:11.658Z,1568.00
2022-08-17T04:55:12.868Z,1844.00
2022-08-17T05:00:15.315Z,2168.00
2022-08-17T05:05:15.571Z,2504.00
2022-08-17T05:10:14.790Z,2800.00
2022-08-17T05:15:16.039Z,3028.00
2022-08-17T05:20:17.467Z,3248.00
2022-08-17T05:25:25.643Z,3452.00
2022-08-17T05:30:18.037Z,3720.00
2022-08-17T05:35:20.191Z,3892.00
2022-08-17T05:40:20.494Z,3648.00
2022-08-17T05:45:42.802Z,3664.00
2022-08-17T05:50:23.207Z,3544.00
2022-08-17T05:55:19.477Z,4352.00
2022-08-17T06:00:20.424Z,3516.00
2022-08-17T06:05:21.791Z,3472.00
2022-08-17T06:10:22.831Z,2968.00
2022-08-17T06:15:24.879Z,2828.00
2022-08-17T06:20:24.919Z,3256.00
2022-08-17T06:25:23.952Z,4176.00
2022-08-17T06:30:25.930Z,5368.00
2022-08-17T06:35:28.909Z,5572.00
2022-08-17T06:40:25.746Z,5444.00
2022-08-17T06:45:26.756Z,5068.00
2022-08-17T06:50:27.856Z,5020.00
2022-08-17T06:55:28.855Z,4404.00
2022-08-17T07:00:30.013Z,5272.00
2022-08-17T07:05:32.130Z,5560.00
2022-08-17T07:10:31.100Z,5904.00
2022-08-17T07:15:32.138Z,6224.00
2022-08-17T07:20:35.222Z,6108.00
2022-08-17T07:25:35.220Z,6188.00
2022-08-17T07:30:37.186Z,5812.00
2022-08-17T07:35:40.908Z,5724.00
2022-08-17T07:40:35.657Z,5876.00
2022-08-17T07:45:36.584Z,5664.00
2022-08-17T07:50:35.527Z,5608.00
2022-08-17T07:55:36.022Z,6764.00
2022-08-17T08:00:37.903Z,7472.00
2022-08-17T08:05:50.578Z,7692.00
2022-08-17T08:10:37.839Z,5348.00
2022-08-17T08:15:38.440Z,5740.00
2022-08-17T08:20:52.111Z,5888.00
2022-08-17T08:25:39.950Z,7104.00
2022-08-17T08:30:38.809Z,7440.00
2022-08-17T08:35:39.675Z,6552.00
2022-08-17T08:40:40.521Z,5724.00
2022-08-17T08:45:41.354Z,5692.00
2022-08-17T08:50:42.263Z,5876.00
2022-08-17T08:55:43.134Z,6384.00
2022-08-17T09:00:44.027Z,6048.00
2022-08-17T09:05:44.867Z,6384.00
2022-08-17T09:10:46.288Z,7912.00
2022-08-17T09:15:44.072Z,7784.00
2022-08-17T09:20:48.062Z,7408.00
2022-08-17T09:25:45.481Z,6896.00
2022-08-17T09:30:47.375Z,7224.00
2022-08-17T09:35:46.184Z,6976.00
2022-08-17T09:40:46.957Z,6628.00
2022-08-17T09:45:48.776Z,6640.00
2022-08-17T09:50:55.375Z,6504.00
2022-08-17T09:55:48.137Z,6480.00
2022-08-17T10:00:49.005Z,6532.00
2022-08-17T10:05:50.790Z,6292.00
2022-08-17T10:10:52.437Z,6292.00
2022-08-17T10:15:51.065Z,6440.00
2022-08-17T10:20:53.917Z,6288.00
2022-08-17T10:25:55.422Z,6032.00
2022-08-17T10:31:05.300Z,6368.00
2022-08-17T10:35:53.298Z,6152.00
2022-08-17T10:40:54.965Z,6328.00
2022-08-17T10:46:09.417Z,6436.00
2022-08-17T10:50:55.421Z,6444.00
2022-08-17T10:55:55.270Z,6256.00
2022-08-17T11:00:54.093Z,6456.00
2022-08-17T11:05:54.956Z,6676.00
2022-08-17T11:10:55.750Z,6856.00
2022-08-17T11:15:59.478Z,6840.00
2022-08-17T11:20:57.222Z,6872.00
2022-08-17T11:25:56.439Z,6644.00
2022-08-17T11:30:55.392Z,4532.00
2022-08-17T11:35:56.337Z,4484.00
2022-08-17T11:40:59.269Z,6620.00
2022-08-17T11:45:59.136Z,9672.00
2022-08-17T11:50:58.910Z,9552.00
2022-08-17T11:55:57.751Z,8704.00
2022-08-17T12:00:58.489Z,8144.00
2022-08-17T12:05:59.211Z,6108.00
2022-08-17T12:11:01.042Z,8096.00
2022-08-17T12:16:00.715Z,7800.00
2022-08-17T12:21:00.433Z,7040.00
2022-08-17T12:25:59.225Z,6036.00
2022-08-17T12:30:58.910Z,6668.00
2022-08-17T12:35:59.896Z,7336.00
2022-08-17T12:41:02.271Z,7416.00
2022-08-17T12:45:59.923Z,6464.00
2022-08-17T12:51:00.647Z,6388.00
2022-08-17T12:56:03.371Z,8156.00
2022-08-17T13:01:05.024Z,7576.00
2022-08-17T13:06:01.775Z,6748.00
2022-08-17T13:11:02.434Z,6032.00
2022-08-17T13:16:03.119Z,5584.00
2022-08-17T13:21:03.812Z,6280.00
2022-08-17T13:26:05.533Z,6836.00
2022-08-17T13:31:07.232Z,5236.00
2022-08-17T13:36:07.812Z,5648.00
2022-08-17T13:41:04.754Z,7364.00
2022-08-17T13:46:05.462Z,7848.00
2022-08-17T13:51:06.198Z,6612.00
2022-08-17T13:56:06.877Z,6972.00
2022-08-17T14:01:07.527Z,6020.00
2022-08-17T14:06:09.035Z,6664.00
2022-08-17T14:11:08.674Z,6340.00
2022-08-17T14:16:07.397Z,6480.00
2022-08-17T14:21:08.039Z,6928.00
2022-08-17T14:26:08.693Z,6848.00
2022-08-17T14:31:09.376Z,6240.00
2022-08-17T14:36:10.075Z,6156.00
2022-08-17T14:41:10.821Z,6376.00
2022-08-17T14:46:12.544Z,6332.00
2022-08-17T14:51:12.200Z,6080.00
2022-08-17T14:56:11.935Z,5872.00
2022-08-17T15:01:11.843Z,5700.00
2022-08-17T15:06:12.598Z,5528.00
2022-08-17T15:11:14.302Z,5276.00
2022-08-17T15:16:13.151Z,5060.00
2022-08-17T15:21:12.830Z,4764.00
2022-08-17T15:26:11.504Z,4512.00
2022-08-17T15:31:12.156Z,4348.00
2022-08-17T15:36:12.853Z,4192.00
2022-08-17T15:41:13.527Z,3968.00
2022-08-17T15:46:15.249Z,3784.00
2022-08-17T15:51:13.967Z,3728.00
2022-08-17T15:56:15.616Z,3716.00
2022-08-17T16:01:18.432Z,3600.00
2022-08-17T16:06:15.829Z,3404.00
2022-08-17T16:11:13.748Z,3172.00
2022-08-17T16:16:14.611Z,3076.00
2022-08-17T16:21:15.347Z,2760.00
2022-08-17T16:26:17.044Z,2468.00
2022-08-17T16:31:15.753Z,2396.00
2022-08-17T16:36:16.440Z,2320.00
2022-08-17T16:41:18.182Z,2220.00
2022-08-17T16:46:17.908Z,2156.00
2022-08-17T16:51:17.635Z,2420.00
2022-08-17T16:56:16.305Z,2776.00
2022-08-17T17:01:17.267Z,2952.00
2022-08-17T17:06:18.731Z,2564.00
2022-08-17T17:11:18.543Z,1868.00
2022-08-17T17:16:18.398Z,1192.00
2022-08-17T17:21:17.275Z,788.00
2022-08-17T17:26:18.045Z,588.00
2022-08-17T17:31:18.879Z,472.00
2022-08-17T17:36:20.668Z,392.00
2022-08-17T17:41:25.302Z,324.00
2022-08-17T17:46:28.656Z,308.00
2022-08-17T17:52:05.277Z,272.00
2022-08-17T17:56:34.926Z,200.00
2022-08-17T18:01:20.602Z,148.00
2022-08-17T18:06:20.011Z,96.00
2022-08-17T18:11:24.074Z,68.00
2022-08-17T18:16:20.600Z,40.00
2022-08-17T18:21:19.477Z,24.00
2022-08-17T18:26:20.445Z,16.00
2022-08-17T18:31:23.272Z,8.00
2022-08-17T18:36:23.119Z,8.00
2022-08-17T18:41:22.968Z,4.00
2022-08-17T18:46:28.659Z,0.00
2022-08-17T18:51:21.504Z,0.00
2022-08-17T18:56:21.508Z,0.00
2022-08-17T19:01:21.639Z,0.00
2022-08-17T19:06:21.308Z,0.00
2022-08-17T19:11:22.227Z,0.00
2022-08-17T19:16:24.146Z,0.00
2022-08-17T19:21:24.079Z,0.00
2022-08-17T19:26:54.333Z,0.00
2022-08-17T19:31:22.440Z,0.00
2022-08-17T19:36:25.434Z,0.00
2022-08-17T19:41:24.400Z,0.00
2022-08-17T19:46:25.358Z,0.00
2022-08-17T19:51:28.293Z,0.00
2022-08-17T19:56:27.340Z,0.00
2022-08-17T20:01:34.414Z,0.00
2022-08-17T20:06:30.211Z,0.00
2022-08-17T20:11:30.370Z,0.00
2022-08-17T20:16:30.352Z,0.00
2022-08-17T20:21:29.708Z,0.00
2022-08-17T20:26:34.628Z,0.00
2022-08-17T20:31:31.030Z,0.00
2022-08-17T20:36:30.122Z,0.00
2022-08-17T20:41:32.121Z,0.00
2022-08-17T20:46:31.080Z,0.00
2022-08-17T20:51:32.062Z,0.00
2022-08-17T20:56:33.120Z,0.00
2022-08-17T21:01:33.234Z,0.00
2022-08-17T21:06:34.223Z,0.00
2022-08-17T21:11:57.372Z,0.00
2022-08-17T21:16:34.094Z,0.00
2022-08-17T21:21:36.081Z,0.00
2022-08-17T21:26:36.103Z,0.00
2022-08-17T21:31:36.986Z,0.00
2022-08-17T21:36:37.418Z,0.00
2022-08-17T21:41:36.498Z,0.00
2022-08-17T21:46:38.531Z,0.00
2022-08-17T21:51:39.589Z,0.00
2022-08-17T21:56:38.667Z,0.00
2022-08-17T22:01:41.973Z,0.00
2022-08-17T22:06:41.067Z,0.00
2022-08-17T22:11:42.275Z,0.00
2022-08-17T22:16:43.191Z,0.00
2022-08-17T22:21:45.343Z,0.00
2022-08-17T22:26:45.526Z,0.00
2022-08-17T22:31:44.633Z,0.00
2022-08-17T22:36:45.772Z,0.00
2022-08-17T22:41:47.012Z,0.00
2022-08-17T22:46:48.128Z,0.00
2022-08-17T22:51:53.193Z,0.00
2022-08-17T22:56:51.387Z,0.00
2022-08-17T23:01:52.102Z,0.00
2022-08-17T23:06:51.264Z,0.00
2022-08-17T23:11:53.397Z,0.00
2022-08-17T23:16:52.559Z,0.00
2022-08-17T23:21:53.729Z,0.00
2022-08-17T23:26:55.911Z,0.00
2022-08-17T23:31:55.110Z,0.00
2022-08-17T23:36:57.258Z,0.00
2022-08-17T23:41:56.433Z,0.00
2022-08-17T23:46:57.628Z,0.00
2022-08-17T23:52:00.855Z,0.00
2022-08-17T23:57:00.031Z,0.00
